sensor_id;sensor_type;location;lat;lon;timestamp;temperature;humidity
34153;DHT22;20426;48.372;10.888;2022-10-16T00:00:05;14.80;99.90
34153;DHT22;20426;48.372;10.888;2022-10-16T00:00:38;14.80;99.90
34153;DHT22;20426;48.372;10.888;2022-10-16T00:01:11;14.80;99.90
34153;DHT22;20426;48.372;10.888;2022-10-16T00:01:42;14.80;99.90
34153;DHT22;20426;48.372;10.888;2022-10-16T00:02:13;14.80;99.90
34153;DHT22;20426;48.372;10.888;2022-10-16T00:02:44;14.80;99.90
34153;DHT22;20426;48.372;10.888;2022-10-16T00:03:15;14.80;99.90
34153;DHT22;20426;48.372;10.888;2022-10-16T00:03:47;14.80;99.90
34153;DHT22;20426;48.372;10.888;2022-10-16T00:04:17;14.80;99.90
34153;DHT22;20426;48.372;10.888;2022-10-16T00:04:48;14.80;99.90
34153;DHT22;20426;48.372;10.888;2022-10-16T00:05:19;14.80;99.90
34153;DHT22;20426;48.372;10.888;2022-10-16T00:05:50;14.80;99.90
34153;DHT22;20426;48.372;10.888;2022-10-16T00:06:21;14.80;99.90
34153;DHT22;20426;48.372;10.888;2022-10-16T00:06:52;14.80;99.90
34153;DHT22;20426;48.372;10.888;2022-10-16T00:07:23;14.80;99.90
34153;DHT22;20426;48.372;10.888;2022-10-16T00:07:54;14.80;99.90
34153;DHT22;20426;48.372;10.888;2022-10-16T00:08:24;14.80;99.90
34153;DHT22;20426;48.372;10.888;2022-10-16T00:08:55;14.80;99.90
34153;DHT22;20426;48.372;10.888;2022-10-16T00:09:26;14.80;99.90
34153;DHT22;20426;48.372;10.888;2022-10-16T00:09:57;14.80;99.90
34153;DHT22;20426;48.372;10.888;2022-10-16T00:10:27;14.80;99.90
34153;DHT22;20426;48.372;10.888;2022-10-16T00:11:07;14.80;99.90
34153;DHT22;20426;48.372;10.888;2022-10-16T00:11:40;14.80;99.90
34153;DHT22;20426;48.372;10.888;2022-10-16T00:12:10;14.80;99.90
34153;DHT22;20426;48.372;10.888;2022-10-16T00:12:41;14.80;99.90
34153;DHT22;20426;48.372;10.888;2022-10-16T00:13:12;14.80;99.90
34153;DHT22;20426;48.372;10.888;2022-10-16T00:13:44;14.80;99.90
34153;DHT22;20426;48.372;10.888;2022-10-16T00:14:15;14.70;99.90
34153;DHT22;20426;48.372;10.888;2022-10-16T00:14:46;14.80;99.90
34153;DHT22;20426;48.372;10.888;2022-10-16T00:15:16;14.70;99.90
34153;DHT22;20426;48.372;10.888;2022-10-16T00:15:47;14.70;99.90
34153;DHT22;20426;48.372;10.888;2022-10-16T00:16:18;14.70;99.90
34153;DHT22;20426;48.372;10.888;2022-10-16T00:16:49;14.70;99.90
34153;DHT22;20426;48.372;10.888;2022-10-16T00:17:20;14.70;99.90
34153;DHT22;20426;48.372;10.888;2022-10-16T00:17:51;14.70;99.90
34153;DHT22;20426;48.372;10.888;2022-10-16T00:18:21;14.80;99.90
34153;DHT22;20426;48.372;10.888;2022-10-16T00:18:53;14.80;99.90
34153;DHT22;20426;48.372;10.888;2022-10-16T00:19:23;14.80;99.90
34153;DHT22;20426;48.372;10.888;2022-10-16T00:19:54;14.80;99.90
34153;DHT22;20426;48.372;10.888;2022-10-16T00:20:25;14.80;99.90
34153;DHT22;20426;48.372;10.888;2022-10-16T00:21:00;14.80;99.90
34153;DHT22;20426;48.372;10.888;2022-10-16T00:21:32;14.80;99.90
34153;DHT22;20426;48.372;10.888;2022-10-16T00:22:02;14.80;99.90
34153;DHT22;20426;48.372;10.888;2022-10-16T00:22:33;14.70;99.90
34153;DHT22;20426;48.372;10.888;2022-10-16T00:23:04;14.70;99.90
34153;DHT22;20426;48.372;10.888;2022-10-16T00:23:35;14.80;99.90
34153;DHT22;20426;48.372;10.888;2022-10-16T00:24:07;14.70;99.90
34153;DHT22;20426;48.372;10.888;2022-10-16T00:24:39;14.70;99.90
34153;DHT22;20426;48.372;10.888;2022-10-16T00:25:09;14.70;99.90
34153;DHT22;20426;48.372;10.888;2022-10-16T00:25:40;14.70;99.90
34153;DHT22;20426;48.372;10.888;2022-10-16T00:26:14;14.70;99.90
34153;DHT22;20426;48.372;10.888;2022-10-16T00:26:45;14.70;99.90
34153;DHT22;20426;48.372;10.888;2022-10-16T00:27:15;14.70;99.90
34153;DHT22;20426;48.372;10.888;2022-10-16T00:27:47;14.60;99.90
34153;DHT22;20426;48.372;10.888;2022-10-16T00:28:17;14.60;99.90
34153;DHT22;20426;48.372;10.888;2022-10-16T00:28:49;14.60;99.90
34153;DHT22;20426;48.372;10.888;2022-10-16T00:29:20;14.60;99.90
34153;DHT22;20426;48.372;10.888;2022-10-16T00:29:52;14.60;99.90
34153;DHT22;20426;48.372;10.888;2022-10-16T00:30:22;14.60;99.90
34153;DHT22;20426;48.372;10.888;2022-10-16T00:30:54;14.70;99.90
34153;DHT22;20426;48.372;10.888;2022-10-16T00:31:25;14.60;99.90
34153;DHT22;20426;48.372;10.888;2022-10-16T00:31:56;14.60;99.90
34153;DHT22;20426;48.372;10.888;2022-10-16T00:32:27;14.60;99.90
34153;DHT22;20426;48.372;10.888;2022-10-16T00:32:57;14.60;99.90
34153;DHT22;20426;48.372;10.888;2022-10-16T00:33:28;14.60;99.90
34153;DHT22;20426;48.372;10.888;2022-10-16T00:33:59;14.60;99.90
34153;DHT22;20426;48.372;10.888;2022-10-16T00:34:30;14.60;99.90
34153;DHT22;20426;48.372;10.888;2022-10-16T00:35:01;14.60;99.90
34153;DHT22;20426;48.372;10.888;2022-10-16T00:35:34;14.60;99.90
34153;DHT22;20426;48.372;10.888;2022-10-16T00:36:05;14.60;99.90
34153;DHT22;20426;48.372;10.888;2022-10-16T00:36:36;14.60;99.90
34153;DHT22;20426;48.372;10.888;2022-10-16T00:37:07;14.70;99.90
34153;DHT22;20426;48.372;10.888;2022-10-16T00:37:38;14.60;99.90
34153;DHT22;20426;48.372;10.888;2022-10-16T00:38:08;14.60;99.90
34153;DHT22;20426;48.372;10.888;2022-10-16T00:38:39;14.60;99.90
34153;DHT22;20426;48.372;10.888;2022-10-16T00:39:10;14.60;99.90
34153;DHT22;20426;48.372;10.888;2022-10-16T00:39:40;14.60;99.90
34153;DHT22;20426;48.372;10.888;2022-10-16T00:40:11;14.60;99.90
34153;DHT22;20426;48.372;10.888;2022-10-16T00:40:42;14.60;99.90
34153;DHT22;20426;48.372;10.888;2022-10-16T00:41:17;14.60;99.90
34153;DHT22;20426;48.372;10.888;2022-10-16T00:41:48;14.60;99.90
34153;DHT22;20426;48.372;10.888;2022-10-16T00:42:19;14.60;99.90
34153;DHT22;20426;48.372;10.888;2022-10-16T00:42:50;14.60;99.90
34153;DHT22;20426;48.372;10.888;2022-10-16T00:44:41;14.60;99.90
34153;DHT22;20426;48.372;10.888;2022-10-16T00:45:12;14.60;99.90
34153;DHT22;20426;48.372;10.888;2022-10-16T00:45:43;14.50;99.90
34153;DHT22;20426;48.372;10.888;2022-10-16T00:46:35;14.60;99.90
34153;DHT22;20426;48.372;10.888;2022-10-16T00:47:12;14.60;99.90
34153;DHT22;20426;48.372;10.888;2022-10-16T00:47:46;14.50;99.90
34153;DHT22;20426;48.372;10.888;2022-10-16T00:48:19;14.50;99.90
34153;DHT22;20426;48.372;10.888;2022-10-16T00:49:12;14.50;99.90
34153;DHT22;20426;48.372;10.888;2022-10-16T00:49:45;14.50;99.90
34153;DHT22;20426;48.372;10.888;2022-10-16T00:50:33;14.50;99.90
34153;DHT22;20426;48.372;10.888;2022-10-16T00:51:06;14.50;99.90
34153;DHT22;20426;48.372;10.888;2022-10-16T00:51:49;14.50;99.90
34153;DHT22;20426;48.372;10.888;2022-10-16T00:52:21;14.50;99.90
34153;DHT22;20426;48.372;10.888;2022-10-16T00:52:52;14.50;99.90
34153;DHT22;20426;48.372;10.888;2022-10-16T00:53:25;14.50;99.90
34153;DHT22;20426;48.372;10.888;2022-10-16T00:53:56;14.50;99.90
34153;DHT22;20426;48.372;10.888;2022-10-16T00:54:30;14.60;99.90
34153;DHT22;20426;48.372;10.888;2022-10-16T00:55:03;14.60;99.90
34153;DHT22;20426;48.372;10.888;2022-10-16T00:55:35;14.60;99.90
34153;DHT22;20426;48.372;10.888;2022-10-16T00:56:06;14.60;99.90
34153;DHT22;20426;48.372;10.888;2022-10-16T00:56:37;14.60;99.90
34153;DHT22;20426;48.372;10.888;2022-10-16T00:57:08;14.60;99.90
34153;DHT22;20426;48.372;10.888;2022-10-16T00:57:39;14.60;99.90
34153;DHT22;20426;48.372;10.888;2022-10-16T00:58:11;14.60;99.90
34153;DHT22;20426;48.372;10.888;2022-10-16T00:58:41;14.60;99.90
34153;DHT22;20426;48.372;10.888;2022-10-16T00:59:22;14.60;99.90
34153;DHT22;20426;48.372;10.888;2022-10-16T00:59:55;14.60;99.90
34153;DHT22;20426;48.372;10.888;2022-10-16T01:00:26;14.60;99.90
34153;DHT22;20426;48.372;10.888;2022-10-16T01:00:57;14.60;99.90
34153;DHT22;20426;48.372;10.888;2022-10-16T01:01:28;14.60;99.90
34153;DHT22;20426;48.372;10.888;2022-10-16T01:02:00;14.60;99.90
34153;DHT22;20426;48.372;10.888;2022-10-16T01:02:31;14.60;99.90
34153;DHT22;20426;48.372;10.888;2022-10-16T01:03:02;14.60;99.90
34153;DHT22;20426;48.372;10.888;2022-10-16T01:03:35;14.60;99.90
34153;DHT22;20426;48.372;10.888;2022-10-16T01:04:06;14.60;99.90
34153;DHT22;20426;48.372;10.888;2022-10-16T01:04:43;14.60;99.90
34153;DHT22;20426;48.372;10.888;2022-10-16T01:05:15;14.60;99.90
34153;DHT22;20426;48.372;10.888;2022-10-16T01:05:50;14.60;99.90
34153;DHT22;20426;48.372;10.888;2022-10-16T01:07:41;14.70;99.90
34153;DHT22;20426;48.372;10.888;2022-10-16T01:08:37;14.70;99.90
34153;DHT22;20426;48.372;10.888;2022-10-16T01:11:30;14.70;99.90
34153;DHT22;20426;48.372;10.888;2022-10-16T01:13:03;14.70;99.90
34153;DHT22;20426;48.372;10.888;2022-10-16T01:13:41;14.70;99.90
34153;DHT22;20426;48.372;10.888;2022-10-16T01:14:29;14.70;99.90
34153;DHT22;20426;48.372;10.888;2022-10-16T01:15:12;14.70;99.90
34153;DHT22;20426;48.372;10.888;2022-10-16T01:15:52;14.60;99.90
34153;DHT22;20426;48.372;10.888;2022-10-16T01:16:32;14.70;99.90
34153;DHT22;20426;48.372;10.888;2022-10-16T01:17:09;14.60;99.90
34153;DHT22;20426;48.372;10.888;2022-10-16T01:17:49;14.60;99.90
34153;DHT22;20426;48.372;10.888;2022-10-16T01:18:35;14.60;99.90
34153;DHT22;20426;48.372;10.888;2022-10-16T01:19:24;14.60;99.90
34153;DHT22;20426;48.372;10.888;2022-10-16T01:20:26;14.60;99.90
34153;DHT22;20426;48.372;10.888;2022-10-16T01:21:37;14.60;99.90
34153;DHT22;20426;48.372;10.888;2022-10-16T01:22:09;14.60;99.90
34153;DHT22;20426;48.372;10.888;2022-10-16T01:24:49;14.50;99.90
34153;DHT22;20426;48.372;10.888;2022-10-16T01:25:53;14.50;99.90
34153;DHT22;20426;48.372;10.888;2022-10-16T01:27:32;14.50;99.90
34153;DHT22;20426;48.372;10.888;2022-10-16T01:28:09;14.50;99.90
34153;DHT22;20426;48.372;10.888;2022-10-16T01:28:55;14.50;99.90
34153;DHT22;20426;48.372;10.888;2022-10-16T01:30:17;14.50;99.90
34153;DHT22;20426;48.372;10.888;2022-10-16T01:30:50;14.50;99.90
34153;DHT22;20426;48.372;10.888;2022-10-16T01:31:26;14.50;99.90
34153;DHT22;20426;48.372;10.888;2022-10-16T01:32:01;14.50;99.90
34153;DHT22;20426;48.372;10.888;2022-10-16T01:32:38;14.50;99.90
34153;DHT22;20426;48.372;10.888;2022-10-16T01:34:04;14.50;99.90
34153;DHT22;20426;48.372;10.888;2022-10-16T01:34:48;14.40;99.90
34153;DHT22;20426;48.372;10.888;2022-10-16T01:35:24;14.40;99.90
34153;DHT22;20426;48.372;10.888;2022-10-16T01:36:00;14.40;99.90
34153;DHT22;20426;48.372;10.888;2022-10-16T01:36:47;14.40;99.90
34153;DHT22;20426;48.372;10.888;2022-10-16T01:37:31;14.50;99.90
34153;DHT22;20426;48.372;10.888;2022-10-16T01:38:19;14.40;99.90
34153;DHT22;20426;48.372;10.888;2022-10-16T01:38:52;14.40;99.90
34153;DHT22;20426;48.372;10.888;2022-10-16T01:39:28;14.40;99.90
34153;DHT22;20426;48.372;10.888;2022-10-16T01:40:03;14.50;99.90
34153;DHT22;20426;48.372;10.888;2022-10-16T01:40:37;14.40;99.90
34153;DHT22;20426;48.372;10.888;2022-10-16T01:41:15;14.40;99.90
34153;DHT22;20426;48.372;10.888;2022-10-16T01:41:54;14.40;99.90
34153;DHT22;20426;48.372;10.888;2022-10-16T01:42:31;14.40;99.90
34153;DHT22;20426;48.372;10.888;2022-10-16T01:43:14;14.40;99.90
34153;DHT22;20426;48.372;10.888;2022-10-16T01:44:01;14.40;99.90
34153;DHT22;20426;48.372;10.888;2022-10-16T01:44:35;14.40;99.90
34153;DHT22;20426;48.372;10.888;2022-10-16T01:45:07;14.40;99.90
34153;DHT22;20426;48.372;10.888;2022-10-16T01:45:42;14.40;99.90
34153;DHT22;20426;48.372;10.888;2022-10-16T01:46:17;14.50;99.90
34153;DHT22;20426;48.372;10.888;2022-10-16T01:46:51;14.40;99.90
34153;DHT22;20426;48.372;10.888;2022-10-16T01:47:25;14.40;99.90
34153;DHT22;20426;48.372;10.888;2022-10-16T01:47:57;14.40;99.90
34153;DHT22;20426;48.372;10.888;2022-10-16T01:48:29;14.40;99.90
34153;DHT22;20426;48.372;10.888;2022-10-16T01:49:03;14.40;99.90
34153;DHT22;20426;48.372;10.888;2022-10-16T01:49:36;14.40;99.90
34153;DHT22;20426;48.372;10.888;2022-10-16T01:50:08;14.40;99.90
34153;DHT22;20426;48.372;10.888;2022-10-16T01:50:41;14.40;99.90
34153;DHT22;20426;48.372;10.888;2022-10-16T01:51:14;14.40;99.90
34153;DHT22;20426;48.372;10.888;2022-10-16T01:51:48;14.40;99.90
34153;DHT22;20426;48.372;10.888;2022-10-16T01:52:22;14.40;99.90
34153;DHT22;20426;48.372;10.888;2022-10-16T01:52:55;14.40;99.90
34153;DHT22;20426;48.372;10.888;2022-10-16T01:53:27;14.30;99.90
34153;DHT22;20426;48.372;10.888;2022-10-16T01:54:00;14.30;99.90
34153;DHT22;20426;48.372;10.888;2022-10-16T01:54:34;14.30;99.90
34153;DHT22;20426;48.372;10.888;2022-10-16T01:55:08;14.30;99.90
34153;DHT22;20426;48.372;10.888;2022-10-16T01:55:43;14.30;99.90
34153;DHT22;20426;48.372;10.888;2022-10-16T01:56:16;14.30;99.90
34153;DHT22;20426;48.372;10.888;2022-10-16T01:56:49;14.30;99.90
34153;DHT22;20426;48.372;10.888;2022-10-16T01:57:21;14.30;99.90
34153;DHT22;20426;48.372;10.888;2022-10-16T01:57:55;14.30;99.90
34153;DHT22;20426;48.372;10.888;2022-10-16T01:58:28;14.30;99.90
34153;DHT22;20426;48.372;10.888;2022-10-16T01:59:09;14.30;99.90
34153;DHT22;20426;48.372;10.888;2022-10-16T01:59:50;14.30;99.90
34153;DHT22;20426;48.372;10.888;2022-10-16T02:00:22;14.20;99.90
34153;DHT22;20426;48.372;10.888;2022-10-16T02:00:54;14.20;99.90
34153;DHT22;20426;48.372;10.888;2022-10-16T02:01:27;14.30;99.90
34153;DHT22;20426;48.372;10.888;2022-10-16T02:02:07;14.30;99.90
34153;DHT22;20426;48.372;10.888;2022-10-16T02:02:41;14.20;99.90
34153;DHT22;20426;48.372;10.888;2022-10-16T02:03:16;14.20;99.90
34153;DHT22;20426;48.372;10.888;2022-10-16T02:03:52;14.30;99.90
34153;DHT22;20426;48.372;10.888;2022-10-16T02:04:37;14.30;99.90
34153;DHT22;20426;48.372;10.888;2022-10-16T02:05:56;14.20;99.90
34153;DHT22;20426;48.372;10.888;2022-10-16T02:06:28;14.20;99.90
34153;DHT22;20426;48.372;10.888;2022-10-16T02:07:00;14.20;99.90
34153;DHT22;20426;48.372;10.888;2022-10-16T02:07:31;14.20;99.90
34153;DHT22;20426;48.372;10.888;2022-10-16T02:08:02;14.20;99.90
34153;DHT22;20426;48.372;10.888;2022-10-16T02:08:33;14.10;99.90
34153;DHT22;20426;48.372;10.888;2022-10-16T02:09:04;14.20;99.90
34153;DHT22;20426;48.372;10.888;2022-10-16T02:09:35;14.10;99.90
34153;DHT22;20426;48.372;10.888;2022-10-16T02:10:06;14.10;99.90
34153;DHT22;20426;48.372;10.888;2022-10-16T02:10:37;14.10;99.90
34153;DHT22;20426;48.372;10.888;2022-10-16T02:11:08;14.10;99.90
34153;DHT22;20426;48.372;10.888;2022-10-16T02:11:39;14.10;99.90
34153;DHT22;20426;48.372;10.888;2022-10-16T02:12:15;14.10;99.90
34153;DHT22;20426;48.372;10.888;2022-10-16T02:13:03;14.10;99.90
34153;DHT22;20426;48.372;10.888;2022-10-16T02:13:55;14.10;99.90
34153;DHT22;20426;48.372;10.888;2022-10-16T02:14:29;14.10;99.90
34153;DHT22;20426;48.372;10.888;2022-10-16T02:15:00;14.10;99.90
34153;DHT22;20426;48.372;10.888;2022-10-16T02:15:31;14.10;99.90
34153;DHT22;20426;48.372;10.888;2022-10-16T02:16:02;14.10;99.90
34153;DHT22;20426;48.372;10.888;2022-10-16T02:16:42;14.10;99.90
34153;DHT22;20426;48.372;10.888;2022-10-16T02:17:15;14.10;99.90
34153;DHT22;20426;48.372;10.888;2022-10-16T02:17:46;14.10;99.90
34153;DHT22;20426;48.372;10.888;2022-10-16T02:18:16;14.20;99.90
34153;DHT22;20426;48.372;10.888;2022-10-16T02:18:47;14.10;99.90
34153;DHT22;20426;48.372;10.888;2022-10-16T02:19:20;14.20;99.90
34153;DHT22;20426;48.372;10.888;2022-10-16T02:19:54;14.20;99.90
34153;DHT22;20426;48.372;10.888;2022-10-16T02:20:30;14.20;99.90
34153;DHT22;20426;48.372;10.888;2022-10-16T02:21:17;14.20;99.90
34153;DHT22;20426;48.372;10.888;2022-10-16T02:22:01;14.20;99.90
34153;DHT22;20426;48.372;10.888;2022-10-16T02:22:39;14.20;99.90
34153;DHT22;20426;48.372;10.888;2022-10-16T02:23:15;14.20;99.90
34153;DHT22;20426;48.372;10.888;2022-10-16T02:24:43;14.20;99.90
34153;DHT22;20426;48.372;10.888;2022-10-16T02:25:50;14.20;99.90
34153;DHT22;20426;48.372;10.888;2022-10-16T02:26:33;14.20;99.90
34153;DHT22;20426;48.372;10.888;2022-10-16T02:28:10;14.10;99.90
34153;DHT22;20426;48.372;10.888;2022-10-16T02:28:52;14.20;99.90
34153;DHT22;20426;48.372;10.888;2022-10-16T02:29:25;14.20;99.90
34153;DHT22;20426;48.372;10.888;2022-10-16T02:30:05;14.20;99.90
34153;DHT22;20426;48.372;10.888;2022-10-16T02:31:11;14.10;99.90
34153;DHT22;20426;48.372;10.888;2022-10-16T02:31:47;14.10;99.90
34153;DHT22;20426;48.372;10.888;2022-10-16T02:32:23;14.10;99.90
34153;DHT22;20426;48.372;10.888;2022-10-16T02:32:56;14.10;99.90
34153;DHT22;20426;48.372;10.888;2022-10-16T02:33:28;14.10;99.90
34153;DHT22;20426;48.372;10.888;2022-10-16T02:34:02;14.10;99.90
34153;DHT22;20426;48.372;10.888;2022-10-16T02:34:36;14.10;99.90
34153;DHT22;20426;48.372;10.888;2022-10-16T02:35:08;14.10;99.90
34153;DHT22;20426;48.372;10.888;2022-10-16T02:35:40;14.20;99.90
34153;DHT22;20426;48.372;10.888;2022-10-16T02:36:12;14.10;99.90
34153;DHT22;20426;48.372;10.888;2022-10-16T02:36:43;14.10;99.90
34153;DHT22;20426;48.372;10.888;2022-10-16T02:37:16;14.10;99.90
34153;DHT22;20426;48.372;10.888;2022-10-16T02:37:49;14.10;99.90
34153;DHT22;20426;48.372;10.888;2022-10-16T02:38:21;14.10;99.90
34153;DHT22;20426;48.372;10.888;2022-10-16T02:38:52;14.10;99.90
34153;DHT22;20426;48.372;10.888;2022-10-16T02:39:24;14.10;99.90
34153;DHT22;20426;48.372;10.888;2022-10-16T02:39:57;14.10;99.90
34153;DHT22;20426;48.372;10.888;2022-10-16T02:40:28;14.10;99.90
34153;DHT22;20426;48.372;10.888;2022-10-16T02:40:59;14.10;99.90
34153;DHT22;20426;48.372;10.888;2022-10-16T02:41:30;14.10;99.90
34153;DHT22;20426;48.372;10.888;2022-10-16T02:42:01;14.20;99.90
34153;DHT22;20426;48.372;10.888;2022-10-16T02:42:34;14.20;99.90
34153;DHT22;20426;48.372;10.888;2022-10-16T02:43:06;14.20;99.90
34153;DHT22;20426;48.372;10.888;2022-10-16T02:43:37;14.20;99.90
34153;DHT22;20426;48.372;10.888;2022-10-16T02:44:07;14.20;99.90
34153;DHT22;20426;48.372;10.888;2022-10-16T02:44:38;14.20;99.90
34153;DHT22;20426;48.372;10.888;2022-10-16T02:45:10;14.20;99.90
34153;DHT22;20426;48.372;10.888;2022-10-16T02:45:41;14.20;99.90
34153;DHT22;20426;48.372;10.888;2022-10-16T02:46:12;14.20;99.90
34153;DHT22;20426;48.372;10.888;2022-10-16T02:46:43;14.20;99.90
34153;DHT22;20426;48.372;10.888;2022-10-16T02:47:13;14.20;99.90
34153;DHT22;20426;48.372;10.888;2022-10-16T02:47:44;14.20;99.90
34153;DHT22;20426;48.372;10.888;2022-10-16T02:48:15;14.20;99.90
34153;DHT22;20426;48.372;10.888;2022-10-16T02:48:45;14.20;99.90
34153;DHT22;20426;48.372;10.888;2022-10-16T02:49:16;14.20;99.90
34153;DHT22;20426;48.372;10.888;2022-10-16T02:49:48;14.20;99.90
34153;DHT22;20426;48.372;10.888;2022-10-16T02:50:19;14.30;99.90
34153;DHT22;20426;48.372;10.888;2022-10-16T02:50:49;14.20;99.90
34153;DHT22;20426;48.372;10.888;2022-10-16T02:51:21;14.30;99.90
34153;DHT22;20426;48.372;10.888;2022-10-16T02:51:52;14.20;99.90
34153;DHT22;20426;48.372;10.888;2022-10-16T02:52:22;14.20;99.90
34153;DHT22;20426;48.372;10.888;2022-10-16T02:52:53;14.30;99.90
34153;DHT22;20426;48.372;10.888;2022-10-16T02:53:24;14.30;99.90
34153;DHT22;20426;48.372;10.888;2022-10-16T02:53:55;14.30;99.90
34153;DHT22;20426;48.372;10.888;2022-10-16T02:54:25;14.30;99.90
34153;DHT22;20426;48.372;10.888;2022-10-16T02:54:56;14.30;99.90
34153;DHT22;20426;48.372;10.888;2022-10-16T02:55:27;14.30;99.90
34153;DHT22;20426;48.372;10.888;2022-10-16T02:55:58;14.30;99.90
34153;DHT22;20426;48.372;10.888;2022-10-16T02:56:29;14.30;99.90
34153;DHT22;20426;48.372;10.888;2022-10-16T02:57:00;14.30;99.90
34153;DHT22;20426;48.372;10.888;2022-10-16T02:57:31;14.30;99.90
34153;DHT22;20426;48.372;10.888;2022-10-16T02:58:02;14.30;99.90
34153;DHT22;20426;48.372;10.888;2022-10-16T02:58:32;14.30;99.90
34153;DHT22;20426;48.372;10.888;2022-10-16T02:59:03;14.30;99.90
34153;DHT22;20426;48.372;10.888;2022-10-16T02:59:34;14.30;99.90
34153;DHT22;20426;48.372;10.888;2022-10-16T03:00:06;14.30;99.90
34153;DHT22;20426;48.372;10.888;2022-10-16T03:00:37;14.30;99.90
34153;DHT22;20426;48.372;10.888;2022-10-16T03:01:08;14.30;99.90
34153;DHT22;20426;48.372;10.888;2022-10-16T03:01:42;14.30;99.90
34153;DHT22;20426;48.372;10.888;2022-10-16T03:02:12;14.40;99.90
34153;DHT22;20426;48.372;10.888;2022-10-16T03:02:43;14.40;99.90
34153;DHT22;20426;48.372;10.888;2022-10-16T03:03:14;14.40;99.90
34153;DHT22;20426;48.372;10.888;2022-10-16T03:03:45;14.40;99.90
34153;DHT22;20426;48.372;10.888;2022-10-16T03:04:16;14.40;99.90
34153;DHT22;20426;48.372;10.888;2022-10-16T03:04:46;14.40;99.90
34153;DHT22;20426;48.372;10.888;2022-10-16T03:05:17;14.40;99.90
34153;DHT22;20426;48.372;10.888;2022-10-16T03:05:48;14.40;99.90
34153;DHT22;20426;48.372;10.888;2022-10-16T03:06:19;14.40;99.90
34153;DHT22;20426;48.372;10.888;2022-10-16T03:06:49;14.40;99.90
34153;DHT22;20426;48.372;10.888;2022-10-16T03:07:20;14.40;99.90
34153;DHT22;20426;48.372;10.888;2022-10-16T03:07:51;14.40;99.90
34153;DHT22;20426;48.372;10.888;2022-10-16T03:08:23;14.40;99.90
34153;DHT22;20426;48.372;10.888;2022-10-16T03:08:55;14.40;99.90
34153;DHT22;20426;48.372;10.888;2022-10-16T03:09:26;14.40;99.90
34153;DHT22;20426;48.372;10.888;2022-10-16T03:09:56;14.40;99.90
34153;DHT22;20426;48.372;10.888;2022-10-16T03:10:30;14.40;99.90
34153;DHT22;20426;48.372;10.888;2022-10-16T03:11:01;14.40;99.90
34153;DHT22;20426;48.372;10.888;2022-10-16T03:11:31;14.40;99.90
34153;DHT22;20426;48.372;10.888;2022-10-16T03:12:02;14.40;99.90
34153;DHT22;20426;48.372;10.888;2022-10-16T03:12:33;14.40;99.90
34153;DHT22;20426;48.372;10.888;2022-10-16T03:13:04;14.40;99.90
34153;DHT22;20426;48.372;10.888;2022-10-16T03:13:34;14.40;99.90
34153;DHT22;20426;48.372;10.888;2022-10-16T03:14:05;14.40;99.90
34153;DHT22;20426;48.372;10.888;2022-10-16T03:14:36;14.40;99.90
34153;DHT22;20426;48.372;10.888;2022-10-16T03:15:07;14.40;99.90
34153;DHT22;20426;48.372;10.888;2022-10-16T03:15:38;14.40;99.90
34153;DHT22;20426;48.372;10.888;2022-10-16T03:16:09;14.40;99.90
34153;DHT22;20426;48.372;10.888;2022-10-16T03:16:39;14.40;99.90
34153;DHT22;20426;48.372;10.888;2022-10-16T03:17:10;14.50;99.90
34153;DHT22;20426;48.372;10.888;2022-10-16T03:17:41;14.50;99.90
34153;DHT22;20426;48.372;10.888;2022-10-16T03:18:12;14.50;99.90
34153;DHT22;20426;48.372;10.888;2022-10-16T03:18:43;14.50;99.90
34153;DHT22;20426;48.372;10.888;2022-10-16T03:19:15;14.50;99.90
34153;DHT22;20426;48.372;10.888;2022-10-16T03:19:46;14.40;99.90
34153;DHT22;20426;48.372;10.888;2022-10-16T03:20:16;14.40;99.90
34153;DHT22;20426;48.372;10.888;2022-10-16T03:20:47;14.40;99.90
34153;DHT22;20426;48.372;10.888;2022-10-16T03:21:18;14.40;99.90
34153;DHT22;20426;48.372;10.888;2022-10-16T03:21:49;14.40;99.90
34153;DHT22;20426;48.372;10.888;2022-10-16T03:22:19;14.40;99.90
34153;DHT22;20426;48.372;10.888;2022-10-16T03:22:50;14.40;99.90
34153;DHT22;20426;48.372;10.888;2022-10-16T03:23:21;14.40;99.90
34153;DHT22;20426;48.372;10.888;2022-10-16T03:23:51;14.40;99.90
34153;DHT22;20426;48.372;10.888;2022-10-16T03:24:22;14.40;99.90
34153;DHT22;20426;48.372;10.888;2022-10-16T03:24:53;14.40;99.90
34153;DHT22;20426;48.372;10.888;2022-10-16T03:25:24;14.40;99.90
34153;DHT22;20426;48.372;10.888;2022-10-16T03:25:54;14.40;99.90
34153;DHT22;20426;48.372;10.888;2022-10-16T03:26:25;14.40;99.90
34153;DHT22;20426;48.372;10.888;2022-10-16T03:26:56;14.40;99.90
34153;DHT22;20426;48.372;10.888;2022-10-16T03:27:27;14.40;99.90
34153;DHT22;20426;48.372;10.888;2022-10-16T03:27:57;14.40;99.90
34153;DHT22;20426;48.372;10.888;2022-10-16T03:28:28;14.50;99.90
34153;DHT22;20426;48.372;10.888;2022-10-16T03:28:59;14.40;99.90
34153;DHT22;20426;48.372;10.888;2022-10-16T03:29:29;14.50;99.90
34153;DHT22;20426;48.372;10.888;2022-10-16T03:30:00;14.50;99.90
34153;DHT22;20426;48.372;10.888;2022-10-16T03:30:31;14.50;99.90
34153;DHT22;20426;48.372;10.888;2022-10-16T03:31:01;14.50;99.90
34153;DHT22;20426;48.372;10.888;2022-10-16T03:31:32;14.50;99.90
34153;DHT22;20426;48.372;10.888;2022-10-16T03:32:03;14.50;99.90
34153;DHT22;20426;48.372;10.888;2022-10-16T03:32:34;14.50;99.90
34153;DHT22;20426;48.372;10.888;2022-10-16T03:33:05;14.50;99.90
34153;DHT22;20426;48.372;10.888;2022-10-16T03:33:35;14.50;99.90
34153;DHT22;20426;48.372;10.888;2022-10-16T03:34:06;14.50;99.90
34153;DHT22;20426;48.372;10.888;2022-10-16T03:34:37;14.50;99.90
34153;DHT22;20426;48.372;10.888;2022-10-16T03:35:08;14.50;99.90
34153;DHT22;20426;48.372;10.888;2022-10-16T03:35:38;14.50;99.90
34153;DHT22;20426;48.372;10.888;2022-10-16T03:36:09;14.50;99.90
34153;DHT22;20426;48.372;10.888;2022-10-16T03:36:40;14.50;99.90
34153;DHT22;20426;48.372;10.888;2022-10-16T03:37:10;14.40;99.90
34153;DHT22;20426;48.372;10.888;2022-10-16T03:37:41;14.40;99.90
34153;DHT22;20426;48.372;10.888;2022-10-16T03:38:12;14.40;99.90
34153;DHT22;20426;48.372;10.888;2022-10-16T03:38:42;14.50;99.90
34153;DHT22;20426;48.372;10.888;2022-10-16T03:39:13;14.40;99.90
34153;DHT22;20426;48.372;10.888;2022-10-16T03:39:44;14.40;99.90
34153;DHT22;20426;48.372;10.888;2022-10-16T03:40:16;14.50;99.90
34153;DHT22;20426;48.372;10.888;2022-10-16T03:40:47;14.40;99.90
34153;DHT22;20426;48.372;10.888;2022-10-16T03:41:18;14.40;99.90